sensor_id;sensor_type;location;lat;lon;timestamp;P1;durP1;ratioP1;P2;durP2;ratioP2
6233;SDS011;3150;52.374;9.724;2022-09-04T00:04:25;1137.47;;;999.90;;
6233;SDS011;3150;52.374;9.724;2022-09-04T00:57:39;1150.00;;;999.90;;
6233;SDS011;3150;52.374;9.724;2022-09-04T01:00:44;1145.47;;;999.90;;
6233;SDS011;3150;52.374;9.724;2022-09-04T01:09:31;1150.37;;;999.90;;
6233;SDS011;3150;52.374;9.724;2022-09-04T01:12:44;1151.37;;;999.90;;
6233;SDS011;3150;52.374;9.724;2022-09-04T01:15:48;1154.40;;;999.90;;
6233;SDS011;3150;52.374;9.724;2022-09-04T01:21:57;1151.57;;;999.90;;
6233;SDS011;3150;52.374;9.724;2022-09-04T01:25:03;1143.23;;;999.90;;
6233;SDS011;3150;52.374;9.724;2022-09-04T01:28:12;1129.93;;;999.90;;
6233;SDS011;3150;52.374;9.724;2022-09-04T01:40:15;1145.07;;;999.90;;
6233;SDS011;3150;52.374;9.724;2022-09-04T01:43:29;1144.03;;;999.90;;
6233;SDS011;3150;52.374;9.724;2022-09-04T01:49:27;1123.00;;;999.90;;
6233;SDS011;3150;52.374;9.724;2022-09-04T01:52:34;1119.43;;;999.90;;
6233;SDS011;3150;52.374;9.724;2022-09-04T01:55:30;1116.67;;;999.90;;
6233;SDS011;3150;52.374;9.724;2022-09-04T01:58:28;1139.17;;;999.90;;
6233;SDS011;3150;52.374;9.724;2022-09-04T02:01:29;1119.47;;;999.90;;
6233;SDS011;3150;52.374;9.724;2022-09-04T02:04:27;818.60;;;729.17;;
6233;SDS011;3150;52.374;9.724;2022-09-04T02:07:23;637.65;;;400.95;;
6233;SDS011;3150;52.374;9.724;2022-09-04T02:10:24;674.50;;;371.70;;
6233;SDS011;3150;52.374;9.724;2022-09-04T02:13:27;685.50;;;371.77;;
6233;SDS011;3150;52.374;9.724;2022-09-04T02:16:24;829.53;;;618.93;;
6233;SDS011;3150;52.374;9.724;2022-09-04T02:19:24;997.23;;;899.10;;
6233;SDS011;3150;52.374;9.724;2022-09-04T02:22:25;1110.90;;;999.90;;
6233;SDS011;3150;52.374;9.724;2022-09-04T02:25:24;1113.87;;;999.90;;
6233;SDS011;3150;52.374;9.724;2022-09-04T02:28:22;1126.57;;;999.90;;
6233;SDS011;3150;52.374;9.724;2022-09-04T02:31:28;1107.43;;;999.17;;
6233;SDS011;3150;52.374;9.724;2022-09-04T02:34:27;1111.37;;;999.90;;
6233;SDS011;3150;52.374;9.724;2022-09-04T02:37:25;1113.83;;;999.90;;
6233;SDS011;3150;52.374;9.724;2022-09-04T02:40:24;1066.40;;;966.73;;
6233;SDS011;3150;52.374;9.724;2022-09-04T02:46:36;1115.97;;;999.90;;
6233;SDS011;3150;52.374;9.724;2022-09-04T02:49:38;1103.20;;;998.73;;
6233;SDS011;3150;52.374;9.724;2022-09-04T02:52:51;1094.73;;;993.97;;
6233;SDS011;3150;52.374;9.724;2022-09-04T02:56:01;753.80;;;425.43;;
6233;SDS011;3150;52.374;9.724;2022-09-04T02:59:14;807.40;;;718.60;;
6233;SDS011;3150;52.374;9.724;2022-09-04T03:02:16;1108.90;;;999.90;;
6233;SDS011;3150;52.374;9.724;2022-09-04T03:05:16;1125.53;;;999.90;;
6233;SDS011;3150;52.374;9.724;2022-09-04T03:08:11;1109.40;;;999.90;;
6233;SDS011;3150;52.374;9.724;2022-09-04T03:11:07;686.33;;;420.27;;
6233;SDS011;3150;52.374;9.724;2022-09-04T03:14:05;1092.53;;;993.53;;
6233;SDS011;3150;52.374;9.724;2022-09-04T03:17:05;1084.60;;;984.17;;
6233;SDS011;3150;52.374;9.724;2022-09-04T03:20:02;1082.43;;;984.30;;
6233;SDS011;3150;52.374;9.724;2022-09-04T03:22:59;1103.17;;;999.13;;
6233;SDS011;3150;52.374;9.724;2022-09-04T03:26:11;1101.33;;;998.37;;
6233;SDS011;3150;52.374;9.724;2022-09-04T03:29:11;701.80;;;360.10;;
6233;SDS011;3150;52.374;9.724;2022-09-04T03:32:13;642.73;;;340.27;;
6233;SDS011;3150;52.374;9.724;2022-09-04T03:35:10;672.27;;;347.37;;
6233;SDS011;3150;52.374;9.724;2022-09-04T03:38:13;722.93;;;452.73;;
6233;SDS011;3150;52.374;9.724;2022-09-04T03:41:13;634.00;;;332.30;;
6233;SDS011;3150;52.374;9.724;2022-09-04T03:44:21;622.50;;;335.03;;
6233;SDS011;3150;52.374;9.724;2022-09-04T03:47:22;648.97;;;347.93;;
6233;SDS011;3150;52.374;9.724;2022-09-04T03:50:23;695.00;;;489.67;;
6233;SDS011;3150;52.374;9.724;2022-09-04T03:53:21;605.57;;;323.80;;
6233;SDS011;3150;52.374;9.724;2022-09-04T03:59:40;619.97;;;322.70;;
6233;SDS011;3150;52.374;9.724;2022-09-04T04:05:57;655.00;;;328.13;;
6233;SDS011;3150;52.374;9.724;2022-09-04T04:09:03;646.60;;;330.10;;
6233;SDS011;3150;52.374;9.724;2022-09-04T04:12:19;613.50;;;324.37;;
6233;SDS011;3150;52.374;9.724;2022-09-04T04:15:35;629.00;;;323.43;;
6233;SDS011;3150;52.374;9.724;2022-09-04T04:18:47;635.03;;;336.83;;
6233;SDS011;3150;52.374;9.724;2022-09-04T04:21:49;644.37;;;320.83;;
6233;SDS011;3150;52.374;9.724;2022-09-04T04:25:11;652.10;;;334.67;;
6233;SDS011;3150;52.374;9.724;2022-09-04T04:28:16;630.50;;;340.67;;
6233;SDS011;3150;52.374;9.724;2022-09-04T04:31:22;756.13;;;590.97;;
6233;SDS011;3150;52.374;9.724;2022-09-04T04:34:23;1061.10;;;962.93;;
6233;SDS011;3150;52.374;9.724;2022-09-04T04:37:20;836.43;;;701.70;;
6233;SDS011;3150;52.374;9.724;2022-09-04T04:40:22;1072.00;;;975.33;;
6233;SDS011;3150;52.374;9.724;2022-09-04T04:43:22;1090.93;;;993.13;;
6233;SDS011;3150;52.374;9.724;2022-09-04T04:46:26;1063.57;;;966.50;;
6233;SDS011;3150;52.374;9.724;2022-09-04T04:49:31;745.03;;;393.93;;
6233;SDS011;3150;52.374;9.724;2022-09-04T04:52:32;1070.70;;;973.60;;
6233;SDS011;3150;52.374;9.724;2022-09-04T04:55:34;1077.17;;;980.00;;
6233;SDS011;3150;52.374;9.724;2022-09-04T05:01:51;1074.70;;;977.57;;
6233;SDS011;3150;52.374;9.724;2022-09-04T05:04:54;1089.30;;;990.50;;
6233;SDS011;3150;52.374;9.724;2022-09-04T05:07:54;1079.70;;;981.93;;
6233;SDS011;3150;52.374;9.724;2022-09-04T05:10:54;1076.80;;;978.87;;
6233;SDS011;3150;52.374;9.724;2022-09-04T05:13:49;1082.27;;;984.90;;
6233;SDS011;3150;52.374;9.724;2022-09-04T05:16:56;1080.50;;;982.80;;
6233;SDS011;3150;52.374;9.724;2022-09-04T05:19:58;1084.87;;;987.37;;
6233;SDS011;3150;52.374;9.724;2022-09-04T05:23:16;1088.60;;;990.10;;
6233;SDS011;3150;52.374;9.724;2022-09-04T05:26:16;1083.70;;;985.93;;
6233;SDS011;3150;52.374;9.724;2022-09-04T05:29:15;1098.30;;;997.47;;
6233;SDS011;3150;52.374;9.724;2022-09-04T05:32:22;1103.00;;;999.07;;
6233;SDS011;3150;52.374;9.724;2022-09-04T05:35:19;1105.87;;;999.90;;
6233;SDS011;3150;52.374;9.724;2022-09-04T05:38:22;1094.80;;;994.43;;
6233;SDS011;3150;52.374;9.724;2022-09-04T05:41:22;1108.93;;;999.90;;
6233;SDS011;3150;52.374;9.724;2022-09-04T05:47:46;1153.37;;;999.90;;
6233;SDS011;3150;52.374;9.724;2022-09-04T05:50:56;1160.87;;;999.90;;
6233;SDS011;3150;52.374;9.724;2022-09-04T05:54:01;1171.93;;;999.90;;
6233;SDS011;3150;52.374;9.724;2022-09-04T05:57:11;1168.87;;;999.90;;
6233;SDS011;3150;52.374;9.724;2022-09-04T06:00:10;1138.17;;;999.90;;
6233;SDS011;3150;52.374;9.724;2022-09-04T06:03:19;1162.53;;;999.90;;
6233;SDS011;3150;52.374;9.724;2022-09-04T06:06:27;1171.30;;;999.90;;
6233;SDS011;3150;52.374;9.724;2022-09-04T06:09:26;1167.63;;;999.90;;
6233;SDS011;3150;52.374;9.724;2022-09-04T06:12:32;1186.57;;;999.90;;
6233;SDS011;3150;52.374;9.724;2022-09-04T06:15:49;1215.77;;;999.90;;
6233;SDS011;3150;52.374;9.724;2022-09-04T06:18:52;1203.27;;;999.90;;
6233;SDS011;3150;52.374;9.724;2022-09-04T06:22:03;1220.93;;;999.90;;
6233;SDS011;3150;52.374;9.724;2022-09-04T06:25:11;1204.60;;;999.90;;
6233;SDS011;3150;52.374;9.724;2022-09-04T06:28:21;1252.10;;;999.90;;
6233;SDS011;3150;52.374;9.724;2022-09-04T06:31:32;1250.43;;;999.90;;
6233;SDS011;3150;52.374;9.724;2022-09-04T06:37:56;1269.23;;;999.90;;
6233;SDS011;3150;52.374;9.724;2022-09-04T06:41:09;1232.13;;;999.90;;
6233;SDS011;3150;52.374;9.724;2022-09-04T06:44:12;1246.63;;;999.90;;
6233;SDS011;3150;52.374;9.724;2022-09-04T06:47:13;1243.27;;;999.90;;
6233;SDS011;3150;52.374;9.724;2022-09-04T06:50:17;1226.73;;;999.90;;
6233;SDS011;3150;52.374;9.724;2022-09-04T06:53:16;1263.67;;;999.90;;
6233;SDS011;3150;52.374;9.724;2022-09-04T06:56:26;1253.60;;;999.90;;
6233;SDS011;3150;52.374;9.724;2022-09-04T07:02:55;1273.73;;;999.90;;
6233;SDS011;3150;52.374;9.724;2022-09-04T07:06:01;1259.90;;;999.90;;
6233;SDS011;3150;52.374;9.724;2022-09-04T07:09:01;1248.53;;;999.90;;
6233;SDS011;3150;52.374;9.724;2022-09-04T07:15:26;1262.10;;;999.90;;
6233;SDS011;3150;52.374;9.724;2022-09-04T07:18:52;1241.23;;;999.90;;
6233;SDS011;3150;52.374;9.724;2022-09-04T07:22:02;1250.90;;;999.90;;
6233;SDS011;3150;52.374;9.724;2022-09-04T07:25:10;1254.97;;;999.90;;
6233;SDS011;3150;52.374;9.724;2022-09-04T07:28:09;1237.80;;;999.90;;
6233;SDS011;3150;52.374;9.724;2022-09-04T07:31:12;1253.00;;;999.90;;
6233;SDS011;3150;52.374;9.724;2022-09-04T07:34:10;1261.90;;;999.90;;
6233;SDS011;3150;52.374;9.724;2022-09-04T07:37:12;1274.43;;;999.90;;
6233;SDS011;3150;52.374;9.724;2022-09-04T07:40:13;1290.03;;;999.90;;
6233;SDS011;3150;52.374;9.724;2022-09-04T07:43:09;1291.97;;;999.90;;
6233;SDS011;3150;52.374;9.724;2022-09-04T07:46:09;1277.67;;;999.90;;
6233;SDS011;3150;52.374;9.724;2022-09-04T07:49:07;1275.80;;;999.90;;
6233;SDS011;3150;52.374;9.724;2022-09-04T07:52:05;1274.33;;;999.90;;
6233;SDS011;3150;52.374;9.724;2022-09-04T07:55:21;1389.25;;;999.90;;
6233;SDS011;3150;52.374;9.724;2022-09-04T07:58:27;1280.97;;;999.90;;
6233;SDS011;3150;52.374;9.724;2022-09-04T08:01:41;1267.97;;;999.90;;
6233;SDS011;3150;52.374;9.724;2022-09-04T08:14:55;1298.90;;;999.90;;
6233;SDS011;3150;52.374;9.724;2022-09-04T08:18:10;1313.53;;;999.90;;
6233;SDS011;3150;52.374;9.724;2022-09-04T08:21:24;1296.63;;;999.90;;
6233;SDS011;3150;52.374;9.724;2022-09-04T08:28:20;1302.70;;;999.90;;
6233;SDS011;3150;52.374;9.724;2022-09-04T08:31:12;1301.20;;;999.90;;
6233;SDS011;3150;52.374;9.724;2022-09-04T08:34:25;1295.87;;;999.90;;
6233;SDS011;3150;52.374;9.724;2022-09-04T08:37:36;1301.60;;;999.90;;
6233;SDS011;3150;52.374;9.724;2022-09-04T08:40:48;1279.57;;;999.90;;
6233;SDS011;3150;52.374;9.724;2022-09-04T08:47:42;1248.30;;;999.90;;
6233;SDS011;3150;52.374;9.724;2022-09-04T09:06:33;1262.77;;;999.90;;
6233;SDS011;3150;52.374;9.724;2022-09-04T09:09:50;1276.90;;;999.90;;
6233;SDS011;3150;52.374;9.724;2022-09-04T09:16:43;1261.53;;;999.90;;
6233;SDS011;3150;52.374;9.724;2022-09-04T09:19:50;1263.73;;;999.90;;
6233;SDS011;3150;52.374;9.724;2022-09-04T09:29:35;1280.37;;;999.90;;
6233;SDS011;3150;52.374;9.724;2022-09-04T09:32:55;1280.47;;;999.90;;
6233;SDS011;3150;52.374;9.724;2022-09-04T09:36:18;1292.33;;;999.90;;
6233;SDS011;3150;52.374;9.724;2022-09-04T09:39:36;1281.27;;;999.90;;
6233;SDS011;3150;52.374;9.724;2022-09-04T09:43:04;1267.27;;;999.90;;
6233;SDS011;3150;52.374;9.724;2022-09-04T09:46:23;1277.70;;;999.90;;
6233;SDS011;3150;52.374;9.724;2022-09-04T09:56:53;1268.10;;;999.90;;
6233;SDS011;3150;52.374;9.724;2022-09-04T10:00:19;1252.43;;;999.90;;
6233;SDS011;3150;52.374;9.724;2022-09-04T10:13:18;1269.00;;;999.90;;
6233;SDS011;3150;52.374;9.724;2022-09-04T10:16:36;1268.30;;;999.90;;
6233;SDS011;3150;52.374;9.724;2022-09-04T10:20:15;1266.67;;;999.90;;
6233;SDS011;3150;52.374;9.724;2022-09-04T10:23:24;1242.10;;;999.90;;
6233;SDS011;3150;52.374;9.724;2022-09-04T10:33:10;1246.47;;;999.90;;
6233;SDS011;3150;52.374;9.724;2022-09-04T10:36:17;1249.90;;;999.90;;
6233;SDS011;3150;52.374;9.724;2022-09-04T10:39:25;1251.83;;;999.90;;
6233;SDS011;3150;52.374;9.724;2022-09-04T10:42:41;1251.10;;;999.90;;
6233;SDS011;3150;52.374;9.724;2022-09-04T10:45:46;1253.57;;;999.90;;
6233;SDS011;3150;52.374;9.724;2022-09-04T10:55:30;1255.67;;;999.90;;
6233;SDS011;3150;52.374;9.724;2022-09-04T11:05:23;1256.47;;;999.90;;
6233;SDS011;3150;52.374;9.724;2022-09-04T11:12:05;1265.70;;;999.90;;
6233;SDS011;3150;52.374;9.724;2022-09-04T11:15:13;1261.33;;;999.90;;
6233;SDS011;3150;52.374;9.724;2022-09-04T11:31:49;1278.70;;;999.90;;
6233;SDS011;3150;52.374;9.724;2022-09-04T11:35:11;1265.30;;;999.90;;
6233;SDS011;3150;52.374;9.724;2022-09-04T11:38:23;1277.73;;;999.90;;
6233;SDS011;3150;52.374;9.724;2022-09-04T11:44:56;1279.03;;;999.90;;
6233;SDS011;3150;52.374;9.724;2022-09-04T11:48:14;1266.73;;;999.90;;
6233;SDS011;3150;52.374;9.724;2022-09-04T11:51:42;1287.43;;;999.90;;
6233;SDS011;3150;52.374;9.724;2022-09-04T11:58:37;1278.33;;;999.90;;
6233;SDS011;3150;52.374;9.724;2022-09-04T12:01:46;1306.97;;;999.90;;
6233;SDS011;3150;52.374;9.724;2022-09-04T12:05:02;1284.77;;;999.90;;
6233;SDS011;3150;52.374;9.724;2022-09-04T12:08:23;1285.70;;;999.90;;
6233;SDS011;3150;52.374;9.724;2022-09-04T12:14:18;1290.67;;;999.90;;
6233;SDS011;3150;52.374;9.724;2022-09-04T12:17:31;1282.07;;;999.90;;
6233;SDS011;3150;52.374;9.724;2022-09-04T12:20:50;1276.20;;;999.90;;
6233;SDS011;3150;52.374;9.724;2022-09-04T12:40:37;1306.73;;;999.90;;
6233;SDS011;3150;52.374;9.724;2022-09-04T12:46:52;1291.73;;;999.90;;
6233;SDS011;3150;52.374;9.724;2022-09-04T13:08:09;1297.53;;;999.90;;
6233;SDS011;3150;52.374;9.724;2022-09-04T13:14:33;1315.67;;;999.90;;
6233;SDS011;3150;52.374;9.724;2022-09-04T13:17:44;1310.87;;;999.90;;
6233;SDS011;3150;52.374;9.724;2022-09-04T13:20:46;1300.73;;;999.90;;
6233;SDS011;3150;52.374;9.724;2022-09-04T13:29:42;1307.37;;;999.90;;
6233;SDS011;3150;52.374;9.724;2022-09-04T13:36:02;1299.70;;;999.90;;
6233;SDS011;3150;52.374;9.724;2022-09-04T13:39:22;1296.43;;;999.90;;
6233;SDS011;3150;52.374;9.724;2022-09-04T13:43:01;1300.50;;;999.90;;
6233;SDS011;3150;52.374;9.724;2022-09-04T13:46:26;1306.03;;;999.90;;
6233;SDS011;3150;52.374;9.724;2022-09-04T13:52:14;1284.40;;;999.90;;
6233;SDS011;3150;52.374;9.724;2022-09-04T13:55:13;1303.30;;;999.90;;
6233;SDS011;3150;52.374;9.724;2022-09-04T13:58:15;1313.83;;;999.90;;
6233;SDS011;3150;52.374;9.724;2022-09-04T14:04:20;1312.37;;;999.90;;
6233;SDS011;3150;52.374;9.724;2022-09-04T14:16:09;1314.97;;;999.90;;
6233;SDS011;3150;52.374;9.724;2022-09-04T14:24:44;1317.60;;;999.90;;
6233;SDS011;3150;52.374;9.724;2022-09-04T14:27:47;1308.73;;;999.90;;
6233;SDS011;3150;52.374;9.724;2022-09-04T16:47:21;1275.70;;;999.90;;
6233;SDS011;3150;52.374;9.724;2022-09-04T16:56:21;1258.67;;;999.90;;
6233;SDS011;3150;52.374;9.724;2022-09-04T17:24:30;1285.83;;;999.90;;
6233;SDS011;3150;52.374;9.724;2022-09-04T17:27:48;1291.73;;;999.90;;
6233;SDS011;3150;52.374;9.724;2022-09-04T18:37:41;1249.60;;;999.90;;
6233;SDS011;3150;52.374;9.724;2022-09-04T18:57:20;1243.83;;;999.90;;
6233;SDS011;3150;52.374;9.724;2022-09-04T19:00:21;1242.93;;;999.90;;
6233;SDS011;3150;52.374;9.724;2022-09-04T19:06:27;1248.63;;;999.90;;
6233;SDS011;3150;52.374;9.724;2022-09-04T19:12:44;1236.90;;;999.90;;
6233;SDS011;3150;52.374;9.724;2022-09-04T19:15:53;1238.07;;;999.90;;
6233;SDS011;3150;52.374;9.724;2022-09-04T19:28:28;1243.47;;;999.90;;
6233;SDS011;3150;52.374;9.724;2022-09-04T19:31:23;1244.53;;;999.90;;
6233;SDS011;3150;52.374;9.724;2022-09-04T20:38:52;1185.63;;;999.90;;
6233;SDS011;3150;52.374;9.724;2022-09-04T20:44:49;1227.13;;;999.90;;
6233;SDS011;3150;52.374;9.724;2022-09-04T20:57:21;1225.50;;;999.90;;
6233;SDS011;3150;52.374;9.724;2022-09-04T21:06:40;1225.63;;;999.90;;
6233;SDS011;3150;52.374;9.724;2022-09-04T21:22:38;1229.27;;;999.90;;
6233;SDS011;3150;52.374;9.724;2022-09-04T21:28:42;1234.67;;;999.90;;
6233;SDS011;3150;52.374;9.724;2022-09-04T21:32:11;1222.03;;;999.90;;
6233;SDS011;3150;52.374;9.724;2022-09-04T21:35:22;1222.73;;;999.90;;
6233;SDS011;3150;52.374;9.724;2022-09-04T21:38:42;1236.07;;;999.90;;
6233;SDS011;3150;52.374;9.724;2022-09-04T21:41:48;1231.23;;;999.90;;
6233;SDS011;3150;52.374;9.724;2022-09-04T21:45:09;1230.60;;;999.90;;
6233;SDS011;3150;52.374;9.724;2022-09-04T21:48:21;1236.03;;;999.90;;
6233;SDS011;3150;52.374;9.724;2022-09-04T21:51:48;1234.30;;;999.90;;
6233;SDS011;3150;52.374;9.724;2022-09-04T21:54:52;1215.87;;;999.90;;
6233;SDS011;3150;52.374;9.724;2022-09-04T22:02:00;1197.77;;;999.90;;
6233;SDS011;3150;52.374;9.724;2022-09-04T22:05:27;1193.73;;;999.90;;
6233;SDS011;3150;52.374;9.724;2022-09-04T22:08:27;1208.17;;;999.90;;
6233;SDS011;3150;52.374;9.724;2022-09-04T22:11:49;1208.40;;;999.90;;
6233;SDS011;3150;52.374;9.724;2022-09-04T22:15:14;1205.67;;;999.90;;
6233;SDS011;3150;52.374;9.724;2022-09-04T22:18:20;1221.57;;;999.90;;
6233;SDS011;3150;52.374;9.724;2022-09-04T22:21:33;1218.37;;;999.90;;
6233;SDS011;3150;52.374;9.724;2022-09-04T22:25:01;1209.20;;;999.90;;
6233;SDS011;3150;52.374;9.724;2022-09-04T22:28:11;1208.67;;;999.90;;
6233;SDS011;3150;52.374;9.724;2022-09-04T22:35:19;1221.20;;;999.90;;
6233;SDS011;3150;52.374;9.724;2022-09-04T22:38:33;1216.43;;;999.90;;
6233;SDS011;3150;52.374;9.724;2022-09-04T22:49:07;1213.60;;;999.90;;
6233;SDS011;3150;52.374;9.724;2022-09-04T22:52:24;1209.23;;;999.90;;
6233;SDS011;3150;52.374;9.724;2022-09-04T22:55:29;1220.70;;;999.90;;
6233;SDS011;3150;52.374;9.724;2022-09-04T22:58:56;1220.53;;;999.90;;
6233;SDS011;3150;52.374;9.724;2022-09-04T23:02:21;1207.93;;;999.90;;
6233;SDS011;3150;52.374;9.724;2022-09-04T23:09:41;1206.83;;;999.90;;
6233;SDS011;3150;52.374;9.724;2022-09-04T23:16:44;1200.40;;;999.90;;
6233;SDS011;3150;52.374;9.724;2022-09-04T23:19:55;1206.87;;;999.90;;
6233;SDS011;3150;52.374;9.724;2022-09-04T23:30:16;1202.27;;;999.90;;
6233;SDS011;3150;52.374;9.724;2022-09-04T23:33:21;1209.17;;;999.90;;
6233;SDS011;3150;52.374;9.724;2022-09-04T23:43:22;1203.77;;;999.90;;
6233;SDS011;3150;52.374;9.724;2022-09-04T23:49:56;1195.50;;;999.90;;
6233;SDS011;3150;52.374;9.724;2022-09-04T23:52:55;1202.30;;;999.90;;
6233;SDS011;3150;52.374;9.724;2022-09-04T23:59:11;1200.80;;;999.90;;
